Time;durP1;ratioP1;P1;durP2;ratioP2;P2;SDS_P1;SDS_P2;PMS_P1;PMS_P2;Temp;Humidity;BMP_temperature;BMP_pressure;BME280_temperature;BME280_humidity;BME280_pressure;Samples;Min_cycle;Max_cycle;Signal;HPM_P1;HPM_P2
2022/10/11 00:00:32;;;;;;;17.98;11.18;;;;;;;;;;5151989;27;20094;-68
2022/10/11 00:02:57;;;;;;;16.30;11.10;;;;;;;;;;5152079;27;20039;-68
2022/10/11 00:05:23;;;;;;;17.30;10.90;;;;;;;;;;5152841;27;20023;-68
2022/10/11 00:07:48;;;;;;;15.57;11.10;;;;;;;;;;5133516;27;20377;-68
2022/10/11 00:10:14;;;;;;;16.00;10.88;;;;;;;;;;5152062;27;20072;-67
2022/10/11 00:12:39;;;;;;;15.00;10.90;;;;;;;;;;5152286;27;20035;-67
2022/10/11 00:15:05;;;;;;;17.60;11.07;;;;;;;;;;5152141;27;20030;-69
2022/10/11 00:17:31;;;;;;;17.60;11.35;;;;;;;;;;5152020;27;20027;-68
2022/10/11 00:19:56;;;;;;;17.58;11.15;;;;;;;;;;5151631;27;20022;-68
2022/10/11 00:22:21;;;;;;;16.02;10.80;;;;;;;;;;5133118;27;20088;-68
2022/10/11 00:24:47;;;;;;;15.63;10.27;;;;;;;;;;5151723;27;20105;-69
2022/10/11 00:27:12;;;;;;;16.05;10.45;;;;;;;;;;5152113;27;20026;-70
2022/10/11 00:29:43;;;;;;;16.55;11.70;;;;;;;;;;5152167;27;20055;-69
2022/10/11 00:32:09;;;;;;;16.17;10.55;;;;;;;;;;5151445;27;20015;-68
2022/10/11 00:34:34;;;;;;;15.38;10.13;;;;;;;;;;5151707;27;20038;-68
2022/10/11 00:36:59;;;;;;;13.70;9.85;;;;;;;;;;5139073;27;20519;-68
2022/10/11 00:39:25;;;;;;;15.30;9.50;;;;;;;;;;5153697;27;20027;-68
2022/10/11 00:41:50;;;;;;;12.50;9.18;;;;;;;;;;5137948;27;20068;-68
2022/10/11 00:44:17;;;;;;;14.85;9.80;;;;;;;;;;5137843;27;20436;-68
2022/10/11 00:46:48;;;;;;;16.73;9.60;;;;;;;;;;5137556;27;20062;-68
2022/10/11 00:49:17;;;;;;;15.10;9.25;;;;;;;;;;5137865;27;20023;-68
2022/10/11 00:51:48;;;;;;;14.13;9.40;;;;;;;;;;5137275;27;20049;-68
2022/10/11 00:54:16;;;;;;;13.82;10.10;;;;;;;;;;5119174;27;20039;-68
2022/10/11 00:56:42;;;;;;;14.10;9.70;;;;;;;;;;5137987;27;20023;-68
2022/10/11 00:59:11;;;;;;;13.63;9.23;;;;;;;;;;5119149;27;20031;-68
2022/10/11 01:01:36;;;;;;;13.60;9.38;;;;;;;;;;5137886;27;20023;-68
2022/10/11 01:04:02;;;;;;;15.55;9.82;;;;;;;;;;5137102;27;20023;-68
2022/10/11 01:06:28;;;;;;;13.68;9.57;;;;;;;;;;5137658;27;20043;-68
2022/10/11 01:08:54;;;;;;;13.93;10.43;;;;;;;;;;5135652;27;20117;-68
2022/10/11 01:11:21;;;;;;;13.27;10.30;;;;;;;;;;5137227;27;20026;-68
2022/10/11 01:13:56;;;;;;;14.20;9.70;;;;;;;;;;5137364;27;20034;-68
2022/10/11 01:16:30;;;;;;;13.93;9.50;;;;;;;;;;5137134;27;20042;-68
2022/10/11 01:18:55;;;;;;;13.63;9.88;;;;;;;;;;5136778;27;20031;-67
2022/10/11 01:21:35;;;;;;;14.02;9.98;;;;;;;;;;5137449;27;20059;-68
2022/10/11 01:24:30;;;;;;;17.70;11.35;;;;;;;;;;5137061;27;20106;-68
2022/10/11 01:27:14;;;;;;;13.73;10.98;;;;;;;;;;5136812;27;20496;-68
2022/10/11 01:29:45;;;;;;;15.82;9.90;;;;;;;;;;5136798;27;20023;-68
2022/10/11 01:32:34;;;;;;;15.15;10.80;;;;;;;;;;5118773;27;20081;-68
2022/10/11 01:35:05;;;;;;;22.17;12.52;;;;;;;;;;5125957;27;20039;-68
2022/10/11 01:37:33;;;;;;;19.13;12.48;;;;;;;;;;5118645;27;20055;-68
2022/10/11 01:40:04;;;;;;;21.30;12.32;;;;;;;;;;5136558;27;20076;-68
2022/10/11 01:42:30;;;;;;;18.35;11.90;;;;;;;;;;5136692;27;20474;-68
2022/10/11 01:44:57;;;;;;;23.40;13.60;;;;;;;;;;5136578;27;20035;-68
2022/10/11 01:47:23;;;;;;;22.42;13.30;;;;;;;;;;5135243;27;20026;-68
2022/10/11 01:49:55;;;;;;;19.92;12.77;;;;;;;;;;5136682;27;20015;-68
2022/10/11 01:52:21;;;;;;;25.27;13.68;;;;;;;;;;5136247;27;20029;-68
2022/10/11 01:54:52;;;;;;;21.58;12.98;;;;;;;;;;5118206;27;20106;-68
2022/10/11 01:57:28;;;;;;;22.58;14.50;;;;;;;;;;5136366;27;20478;-68
2022/10/11 02:00:00;;;;;;;20.13;12.85;;;;;;;;;;5136518;27;20039;-67
2022/10/11 02:02:28;;;;;;;18.80;13.32;;;;;;;;;;5136566;27;20550;-67
2022/10/11 02:04:56;;;;;;;19.83;13.43;;;;;;;;;;5136435;27;20076;-68
2022/10/11 02:07:23;;;;;;;20.80;12.50;;;;;;;;;;5136146;27;20019;-67
2022/10/11 02:09:56;;;;;;;20.38;13.05;;;;;;;;;;5136451;27;20458;-68
2022/10/11 02:12:29;;;;;;;20.50;13.02;;;;;;;;;;5135908;27;20023;-67
2022/10/11 02:14:55;;;;;;;20.85;12.98;;;;;;;;;;5135695;27;20031;-68
2022/10/11 02:17:24;;;;;;;22.10;12.93;;;;;;;;;;5135963;27;20023;-68
2022/10/11 02:19:51;;;;;;;18.25;12.48;;;;;;;;;;5135913;27;20069;-67
2022/10/11 02:22:21;;;;;;;19.15;13.05;;;;;;;;;;5117580;27;20019;-68
2022/10/11 02:24:51;;;;;;;19.30;12.50;;;;;;;;;;5135305;27;20024;-68
2022/10/11 02:27:18;;;;;;;22.75;13.15;;;;;;;;;;5135425;27;20065;-68
2022/10/11 02:29:44;;;;;;;17.48;12.10;;;;;;;;;;5135359;27;20027;-68
2022/10/11 02:32:09;;;;;;;17.80;12.40;;;;;;;;;;5135517;27;20133;-68
2022/10/11 02:34:36;;;;;;;18.77;13.05;;;;;;;;;;5135250;27;20455;-68
2022/10/11 02:37:09;;;;;;;17.17;12.30;;;;;;;;;;5135565;27;20088;-68
2022/10/11 02:39:43;;;;;;;22.52;13.05;;;;;;;;;;5136071;27;20031;-68
2022/10/11 02:42:12;;;;;;;23.55;13.07;;;;;;;;;;5117228;27;20027;-68
2022/10/11 02:44:41;;;;;;;16.85;12.27;;;;;;;;;;5135377;27;20378;-68
2022/10/11 02:47:08;;;;;;;21.70;12.80;;;;;;;;;;5135559;27;20061;-68
2022/10/11 02:49:33;;;;;;;18.05;13.00;;;;;;;;;;5117406;27;20022;-68
2022/10/11 02:51:59;;;;;;;19.63;11.98;;;;;;;;;;5116657;27;20024;-67
2022/10/11 02:54:25;;;;;;;18.13;12.60;;;;;;;;;;5135523;27;20077;-67
2022/10/11 02:56:51;;;;;;;22.05;13.77;;;;;;;;;;5135312;27;20019;-67
2022/10/11 02:59:17;;;;;;;22.48;13.43;;;;;;;;;;5134705;27;20015;-68
2022/10/11 03:01:43;;;;;;;17.98;12.43;;;;;;;;;;5134934;27;20031;-67
2022/10/11 03:04:09;;;;;;;18.00;11.95;;;;;;;;;;5116413;27;20031;-68
2022/10/11 03:06:34;;;;;;;18.95;11.95;;;;;;;;;;5134874;27;20019;-68
2022/10/11 03:08:59;;;;;;;16.92;11.70;;;;;;;;;;5116418;27;20350;-67
2022/10/11 03:11:25;;;;;;;18.27;11.85;;;;;;;;;;5134742;27;20080;-67
2022/10/11 03:13:50;;;;;;;19.23;12.43;;;;;;;;;;5135104;27;20420;-67
2022/10/11 03:16:21;;;;;;;18.52;12.00;;;;;;;;;;5135297;27;20110;-66
2022/10/11 03:18:47;;;;;;;17.20;11.73;;;;;;;;;;5134973;27;20091;-67
2022/10/11 03:21:12;;;;;;;17.70;11.55;;;;;;;;;;5135283;27;20023;-67
2022/10/11 03:23:38;;;;;;;21.30;11.70;;;;;;;;;;5112760;22;21432;-93
2022/10/11 03:26:04;;;;;;;19.52;10.75;;;;;;;;;;5037377;28;20088;-94
2022/10/11 03:28:30;;;;;;;20.02;11.40;;;;;;;;;;5058377;28;20056;-94
2022/10/11 03:30:55;;;;;;;16.98;11.07;;;;;;;;;;5039793;28;20043;-93
2022/10/11 03:33:21;;;;;;;15.93;10.65;;;;;;;;;;5039280;28;20429;-93
2022/10/11 03:35:47;;;;;;;16.45;10.52;;;;;;;;;;5039618;28;20029;-93
2022/10/11 03:38:14;;;;;;;18.05;10.98;;;;;;;;;;5056281;28;20075;-92
2022/10/11 03:40:40;;;;;;;20.67;11.55;;;;;;;;;;5039723;28;20089;-92
2022/10/11 03:43:05;;;;;;;17.20;11.18;;;;;;;;;;5057788;28;20017;-93
2022/10/11 03:45:31;;;;;;;21.35;11.07;;;;;;;;;;5039541;28;20027;-92
2022/10/11 03:47:56;;;;;;;19.10;11.27;;;;;;;;;;5039868;28;20028;-93
2022/10/11 03:50:21;;;;;;;17.63;10.65;;;;;;;;;;5039604;28;20023;-93
2022/10/11 03:52:47;;;;;;;18.50;11.00;;;;;;;;;;5039595;28;20025;-92
2022/10/11 03:55:12;;;;;;;17.10;11.15;;;;;;;;;;5039488;28;20040;-91
2022/10/11 03:57:38;;;;;;;16.52;10.50;;;;;;;;;;5039553;28;20078;-92
2022/10/11 04:00:04;;;;;;;16.40;10.82;;;;;;;;;;5039533;28;20021;-92
2022/10/11 04:02:30;;;;;;;14.93;9.65;;;;;;;;;;5055975;28;20059;-92
2022/10/11 04:04:55;;;;;;;13.65;9.63;;;;;;;;;;5039505;28;20025;-94
2022/10/11 04:07:21;;;;;;;16.52;9.68;;;;;;;;;;5041562;28;20100;-95
2022/10/11 04:09:55;;;;;;;14.93;9.20;;;;;;;;;;5048666;28;20016;-96
2022/10/11 04:12:21;;;;;;;13.27;9.45;;;;;;;;;;5068062;28;20044;-94
2022/10/11 04:14:50;;;;;;;19.00;13.40;;;;;;;;;;5051311;28;20021;-94
2022/10/11 04:17:15;;;;;;;18.75;13.57;;;;;;;;;;5066048;28;20478;-93
2022/10/11 04:19:41;;;;;;;19.50;12.98;;;;;;;;;;5034508;28;20088;-94
2022/10/11 04:22:07;;;;;;;16.50;11.57;;;;;;;;;;5034674;28;20463;-96
2022/10/11 04:24:33;;;;;;;17.20;11.00;;;;;;;;;;5043556;28;20139;-96
2022/10/11 04:26:58;;;;;;;15.95;10.38;;;;;;;;;;5027462;28;20062;-94
2022/10/11 04:29:24;;;;;;;19.83;10.68;;;;;;;;;;5043495;28;20028;-94
2022/10/11 04:31:55;;;;;;;14.38;9.48;;;;;;;;;;5043714;28;20081;-93
2022/10/11 04:34:20;;;;;;;13.88;9.00;;;;;;;;;;5082056;28;20033;-94
2022/10/11 04:36:46;;;;;;;14.57;9.88;;;;;;;;;;5043871;28;20066;-95
2022/10/11 04:39:11;;;;;;;13.70;9.60;;;;;;;;;;5076307;28;20051;-94
2022/10/11 04:41:38;;;;;;;12.20;8.75;;;;;;;;;;5044197;28;20016;-95
2022/10/11 04:44:04;;;;;;;13.55;8.60;;;;;;;;;;5048372;28;20544;-94
2022/10/11 04:46:29;;;;;;;14.70;9.82;;;;;;;;;;5077341;28;20029;-94
2022/10/11 04:48:55;;;;;;;16.98;10.10;;;;;;;;;;5067375;28;20092;-95
2022/10/11 04:51:21;;;;;;;12.88;9.40;;;;;;;;;;5046635;28;20024;-94
2022/10/11 04:53:47;;;;;;;20.52;11.65;;;;;;;;;;5059279;28;20029;-95
2022/10/11 04:56:14;;;;;;;19.27;11.35;;;;;;;;;;5041930;28;20021;-94
2022/10/11 04:58:40;;;;;;;18.85;11.05;;;;;;;;;;5041900;28;20032;-93
2022/10/11 05:01:06;;;;;;;16.88;10.98;;;;;;;;;;5042612;28;20054;-94
2022/10/11 05:03:32;;;;;;;26.95;15.57;;;;;;;;;;5041865;28;20110;-95
2022/10/11 05:05:57;;;;;;;37.03;19.23;;;;;;;;;;5042394;28;20083;-95
2022/10/11 05:08:23;;;;;;;52.53;30.80;;;;;;;;;;5042747;28;20070;-94
2022/10/11 05:10:55;;;;;;;50.60;32.28;;;;;;;;;;5042255;28;20017;-94
2022/10/11 05:13:20;;;;;;;41.22;27.25;;;;;;;;;;5042006;28;20040;-94
2022/10/11 05:15:46;;;;;;;26.85;16.58;;;;;;;;;;5041954;28;20025;-93
2022/10/11 05:18:11;;;;;;;20.60;14.32;;;;;;;;;;5041633;28;20508;-93
2022/10/11 05:20:37;;;;;;;17.38;13.85;;;;;;;;;;5058349;28;20479;-92
2022/10/11 05:23:03;;;;;;;25.27;17.83;;;;;;;;;;5041323;28;20028;-92
2022/10/11 05:25:29;;;;;;;13.85;10.68;;;;;;;;;;5058299;28;20052;-92
2022/10/11 05:27:59;;;;;;;11.90;9.07;;;;;;;;;;5041890;28;20391;-93
2022/10/11 05:30:25;;;;;;;;;;;;;;;;;;5058898;28;20039;-92
2022/10/11 05:32:50;;;;;;;13.83;8.30;;;;;;;;;;5075662;28;19904;-91
2022/10/11 05:35:15;;;;;;;9.75;8.73;;;;;;;;;;5041883;28;20275;-92
2022/10/11 05:37:41;;;;;;;11.75;8.80;;;;;;;;;;5041940;28;20035;-92
2022/10/11 05:40:06;;;;;;;16.10;10.73;;;;;;;;;;5041542;28;20024;-93
2022/10/11 05:42:32;;;;;;;19.45;11.63;;;;;;;;;;5039640;28;20070;-93
2022/10/11 05:44:57;;;;;;;22.80;13.18;;;;;;;;;;5039788;28;20028;-91
2022/10/11 05:47:23;;;;;;;23.65;15.60;;;;;;;;;;5089594;28;20104;-93
2022/10/11 05:49:48;;;;;;;18.35;14.02;;;;;;;;;;5040184;28;20028;-90
2022/10/11 05:52:20;;;;;;;19.10;12.60;;;;;;;;;;5075219;28;20096;-91
2022/10/11 05:54:46;;;;;;;17.38;11.25;;;;;;;;;;5041550;28;20029;-93
2022/10/11 05:57:11;;;;;;;13.30;9.15;;;;;;;;;;5041199;28;20019;-92
2022/10/11 05:59:37;;;;;;;11.95;8.57;;;;;;;;;;5041565;28;20099;-93
2022/10/11 06:02:02;;;;;;;15.68;10.23;;;;;;;;;;5041540;28;20047;-93
2022/10/11 06:04:28;;;;;;;16.50;9.82;;;;;;;;;;5074944;28;20520;-91
2022/10/11 06:06:53;;;;;;;12.75;8.60;;;;;;;;;;5041648;28;20108;-91
2022/10/11 06:09:19;;;;;;;11.63;8.77;;;;;;;;;;5057952;28;20381;-90
2022/10/11 06:11:44;;;;;;;12.23;8.98;;;;;;;;;;5041153;28;20494;-93
2022/10/11 06:14:11;;;;;;;13.73;10.60;;;;;;;;;;5040719;28;20055;-90
2022/10/11 06:16:36;;;;;;;17.77;10.80;;;;;;;;;;5073910;28;20103;-92
2022/10/11 06:19:03;;;;;;;20.40;11.27;;;;;;;;;;5058251;28;20048;-91
2022/10/11 06:21:28;;;;;;;13.88;8.32;;;;;;;;;;5057616;28;20083;-90
2022/10/11 06:23:54;;;;;;;10.18;7.65;;;;;;;;;;5040678;28;20036;-91
2022/10/11 06:26:20;;;;;;;10.63;7.65;;;;;;;;;;5041178;28;20027;-92
2022/10/11 06:28:45;;;;;;;12.60;8.18;;;;;;;;;;5040729;28;20028;-90
2022/10/11 06:31:12;;;;;;;14.13;10.02;;;;;;;;;;5040967;28;20074;-92
2022/10/11 06:33:38;;;;;;;14.70;10.35;;;;;;;;;;5040172;28;20036;-93
2022/10/11 06:36:05;;;;;;;15.23;11.23;;;;;;;;;;5040744;28;20104;-93
2022/10/11 06:38:31;;;;;;;17.77;13.55;;;;;;;;;;5041170;28;20116;-93
2022/10/11 06:40:56;;;;;;;18.38;12.88;;;;;;;;;;5073642;28;20475;-93
2022/10/11 06:43:22;;;;;;;17.65;12.98;;;;;;;;;;5073614;28;20119;-93
2022/10/11 06:45:47;;;;;;;16.95;10.88;;;;;;;;;;5073249;28;20020;-93
2022/10/11 06:48:13;;;;;;;15.75;10.75;;;;;;;;;;5073562;28;20478;-93
2022/10/11 06:50:38;;;;;;;14.10;9.85;;;;;;;;;;5040475;28;20097;-93
2022/10/11 06:53:05;;;;;;;15.02;10.38;;;;;;;;;;5057196;28;20028;-94
2022/10/11 06:55:35;;;;;;;12.35;9.35;;;;;;;;;;5040093;28;20043;-93
2022/10/11 06:58:01;;;;;;;11.60;9.05;;;;;;;;;;5073956;28;20029;-94
2022/10/11 07:00:28;;;;;;;12.38;9.18;;;;;;;;;;5039702;28;20012;-92
2022/10/11 07:02:54;;;;;;;11.70;8.82;;;;;;;;;;5040672;28;20029;-93
2022/10/11 07:05:19;;;;;;;12.77;10.07;;;;;;;;;;5039868;28;20038;-92
2022/10/11 07:07:45;;;;;;;21.75;15.60;;;;;;;;;;5090750;28;20039;-94
2022/10/11 07:10:10;;;;;;;26.05;17.77;;;;;;;;;;5040301;28;20017;-94
2022/10/11 07:12:36;;;;;;;24.85;17.30;;;;;;;;;;5040887;28;20086;-94
2022/10/11 07:15:01;;;;;;;20.88;13.80;;;;;;;;;;5039885;28;20089;-93
2022/10/11 07:17:27;;;;;;;16.10;11.18;;;;;;;;;;5090082;28;20028;-93
2022/10/11 07:19:54;;;;;;;11.70;8.73;;;;;;;;;;5073048;28;20017;-94
2022/10/11 07:22:19;;;;;;;11.18;8.23;;;;;;;;;;5057235;28;20070;-92
2022/10/11 07:24:47;;;;;;;11.15;8.43;;;;;;;;;;5036147;28;20141;-92
2022/10/11 07:27:14;;;;;;;14.98;8.20;;;;;;;;;;5054431;28;20398;-92
2022/10/11 07:29:40;;;;;;;11.90;8.88;;;;;;;;;;5036655;28;20036;-93
2022/10/11 07:32:06;;;;;;;12.85;9.20;;;;;;;;;;5036482;28;20029;-92
2022/10/11 07:34:32;;;;;;;14.68;9.80;;;;;;;;;;5037021;28;20032;-92
2022/10/11 07:36:57;;;;;;;11.77;9.48;;;;;;;;;;5053237;28;20040;-93
2022/10/11 07:39:22;;;;;;;16.48;11.48;;;;;;;;;;5036168;28;20471;-93
2022/10/11 07:41:48;;;;;;;14.63;10.50;;;;;;;;;;5036714;28;20029;-93
2022/10/11 07:44:15;;;;;;;14.40;10.25;;;;;;;;;;5035970;28;20071;-93
2022/10/11 07:46:40;;;;;;;15.95;9.05;;;;;;;;;;5039363;28;20462;-92
2022/10/11 07:49:06;;;;;;;12.50;7.78;;;;;;;;;;5040831;28;20025;-93
2022/10/11 07:51:31;;;;;;;10.20;7.43;;;;;;;;;;5040492;28;20039;-93
2022/10/11 07:53:57;;;;;;;10.15;6.78;;;;;;;;;;5040217;28;20112;-93
2022/10/11 07:56:26;;;;;;;11.63;6.97;;;;;;;;;;5039887;28;20025;-93
2022/10/11 07:58:53;;;;;;;12.67;8.17;;;;;;;;;;5056856;28;20017;-94
2022/10/11 08:01:19;;;;;;;10.32;6.60;;;;;;;;;;5039828;28;20912;-93
2022/10/11 08:03:44;;;;;;;8.93;6.72;;;;;;;;;;5056961;28;20040;-93
2022/10/11 08:06:13;;;;;;;10.63;6.43;;;;;;;;;;5040363;28;20112;-92
2022/10/11 08:08:39;;;;;;;9.77;7.65;;;;;;;;;;5056518;28;20037;-92
2022/10/11 08:11:05;;;;;;;8.65;6.85;;;;;;;;;;5056785;28;20025;-92
2022/10/11 08:13:31;;;;;;;10.57;7.38;;;;;;;;;;5056713;28;20025;-94
2022/10/11 08:15:57;;;;;;;11.38;7.10;;;;;;;;;;5040063;28;20052;-93
2022/10/11 08:18:23;;;;;;;8.73;6.60;;;;;;;;;;5056932;28;20135;-92
2022/10/11 08:20:48;;;;;;;10.57;7.05;;;;;;;;;;5039831;28;20059;-93
2022/10/11 08:23:14;;;;;;;10.63;7.68;;;;;;;;;;5039714;28;20025;-93
2022/10/11 08:25:41;;;;;;;9.93;7.63;;;;;;;;;;5039372;28;20110;-94
2022/10/11 08:28:08;;;;;;;11.88;7.60;;;;;;;;;;5056029;28;20025;-94
2022/10/11 08:30:34;;;;;;;11.82;8.45;;;;;;;;;;5039609;28;20025;-93
2022/10/11 08:33:01;;;;;;;13.57;7.97;;;;;;;;;;5056241;28;20029;-94
2022/10/11 08:35:26;;;;;;;13.00;8.55;;;;;;;;;;5039617;28;20467;-94
2022/10/11 08:37:52;;;;;;;11.70;8.57;;;;;;;;;;5039407;28;20029;-93
2022/10/11 08:40:19;;;;;;;12.45;8.18;;;;;;;;;;5039176;28;20021;-93
2022/10/11 08:42:48;;;;;;;9.30;6.53;;;;;;;;;;5056362;28;20025;-93
2022/10/11 08:45:30;;;;;;;8.02;5.07;;;;;;;;;;5039470;28;20052;-92
2022/10/11 08:48:25;;;;;;;6.55;4.72;;;;;;;;;;5056435;28;20041;-92
2022/10/11 08:50:53;;;;;;;6.90;5.25;;;;;;;;;;5034383;28;20033;-92
2022/10/11 08:53:21;;;;;;;10.65;5.55;;;;;;;;;;5039409;28;20021;-93
2022/10/11 08:55:49;;;;;;;7.72;4.97;;;;;;;;;;5056381;28;20029;-92
2022/10/11 08:58:17;;;;;;;8.25;5.00;;;;;;;;;;5038889;28;20017;-91
2022/10/11 09:00:44;;;;;;;8.23;5.03;;;;;;;;;;5039285;28;20051;-93
2022/10/11 09:03:22;;;;;;;6.22;4.80;;;;;;;;;;5055673;28;20043;-92
2022/10/11 09:06:07;;;;;;;7.32;6.05;;;;;;;;;;5055995;28;20524;-94
2022/10/11 09:08:43;;;;;;;7.95;4.82;;;;;;;;;;5056482;28;20033;-92
2022/10/11 09:11:13;;;;;;;8.20;5.35;;;;;;;;;;5039603;28;20059;-94
2022/10/11 09:13:57;;;;;;;8.43;5.20;;;;;;;;;;5039288;28;20028;-93
2022/10/11 09:16:28;;;;;;;7.93;4.72;;;;;;;;;;5055846;28;20025;-92
2022/10/11 09:19:06;;;;;;;5.90;4.35;;;;;;;;;;5038710;28;20120;-93
2022/10/11 09:21:39;;;;;;;11.18;6.20;;;;;;;;;;5055413;28;20497;-94
2022/10/11 09:24:17;;;;;;;8.77;5.78;;;;;;;;;;5055462;28;20033;-92
2022/10/11 09:26:48;;;;;;;10.30;5.45;;;;;;;;;;5055508;28;20068;-93
2022/10/11 09:29:19;;;;;;;8.23;5.63;;;;;;;;;;5038719;28;20037;-93
2022/10/11 09:31:46;;;;;;;7.32;5.80;;;;;;;;;;5055295;28;20032;-91
2022/10/11 09:34:13;;;;;;;9.73;5.65;;;;;;;;;;5038262;28;20403;-92
2022/10/11 09:36:43;;;;;;;9.18;5.38;;;;;;;;;;5055175;28;20021;-92
2022/10/11 09:39:27;;;;;;;8.15;6.18;;;;;;;;;;5038699;28;20475;-93
2022/10/11 09:41:57;;;;;;;6.53;5.88;;;;;;;;;;5055151;28;20164;-92
2022/10/11 09:44:25;;;;;;;7.68;5.70;;;;;;;;;;5038140;28;20040;-91
2022/10/11 09:46:51;;;;;;;7.30;6.07;;;;;;;;;;5038468;28;20032;-91
2022/10/11 09:49:18;;;;;;;5.93;5.38;;;;;;;;;;5054897;28;20031;-91
2022/10/11 09:51:56;;;;;;;8.13;6.55;;;;;;;;;;5038115;28;20486;-91
2022/10/11 09:54:36;;;;;;;6.47;5.80;;;;;;;;;;5054850;28;20033;-93
2022/10/11 09:57:01;;;;;;;6.78;5.53;;;;;;;;;;5055059;28;20025;-91
2022/10/11 09:59:28;;;;;;;8.63;6.85;;;;;;;;;;5038177;28;20159;-92
2022/10/11 10:02:12;;;;;;;6.85;6.13;;;;;;;;;;5054797;28;20032;-92
2022/10/11 10:04:58;;;;;;;6.88;6.28;;;;;;;;;;5055023;28;20039;-92
2022/10/11 10:07:25;;;;;;;7.30;6.32;;;;;;;;;;5054792;28;20475;-91
2022/10/11 10:09:52;;;;;;;7.38;6.05;;;;;;;;;;5037381;28;20029;-94
2022/10/11 10:12:20;;;;;;;8.73;7.85;;;;;;;;;;5054480;28;20028;-92
2022/10/11 10:14:53;;;;;;;8.65;7.07;;;;;;;;;;5037576;28;20017;-93
2022/10/11 10:17:19;;;;;;;10.25;6.57;;;;;;;;;;5054459;28;20468;-91
2022/10/11 10:19:49;;;;;;;6.47;5.85;;;;;;;;;;5037492;28;20025;-92
2022/10/11 10:22:19;;;;;;;7.68;5.90;;;;;;;;;;5054467;28;20029;-92
2022/10/11 10:24:47;;;;;;;6.73;5.90;;;;;;;;;;5053908;28;20052;-92
2022/10/11 10:27:13;;;;;;;6.72;5.75;;;;;;;;;;5037536;28;20275;-91
2022/10/11 10:29:38;;;;;;;7.22;5.63;;;;;;;;;;5054011;28;20044;-92
2022/10/11 10:32:11;;;;;;;5.53;5.03;;;;;;;;;;5037244;28;20017;-92
2022/10/11 10:34:39;;;;;;;5.85;5.25;;;;;;;;;;5054033;28;20037;-92
2022/10/11 10:37:22;;;;;;;8.40;5.60;;;;;;;;;;5037565;28;20009;-91
2022/10/11 10:39:55;;;;;;;6.53;5.20;;;;;;;;;;5054241;28;20135;-93
2022/10/11 10:42:21;;;;;;;7.28;5.97;;;;;;;;;;5037197;28;20020;-92
2022/10/11 10:44:49;;;;;;;6.97;5.85;;;;;;;;;;5037080;28;20481;-92
2022/10/11 10:47:27;;;;;;;8.90;5.93;;;;;;;;;;5053885;28;20037;-90
2022/10/11 10:49:56;;;;;;;6.88;5.55;;;;;;;;;;5054162;28;20029;-93
2022/10/11 10:52:39;;;;;;;8.63;5.53;;;;;;;;;;5037133;28;20023;-92
2022/10/11 10:55:16;;;;;;;6.22;5.10;;;;;;;;;;5036786;28;20060;-91
2022/10/11 10:57:54;;;;;;;4.72;4.20;;;;;;;;;;5037570;28;20020;-92
2022/10/11 11:00:20;;;;;;;4.68;4.28;;;;;;;;;;5053797;28;20028;-92
2022/10/11 11:02:55;;;;;;;4.15;3.85;;;;;;;;;;5037339;28;20017;-91
2022/10/11 11:05:39;;;;;;;4.40;4.00;;;;;;;;;;5053840;28;20063;-92
2022/10/11 11:08:05;;;;;;;4.55;4.15;;;;;;;;;;5053448;28;20119;-92
2022/10/11 11:10:54;;;;;;;6.72;3.53;;;;;;;;;;5036986;28;20055;-91
2022/10/11 11:13:27;;;;;;;3.95;3.53;;;;;;;;;;5053450;28;20035;-92
2022/10/11 11:16:31;;;;;;;6.18;4.60;;;;;;;;;;5053714;28;20490;-91
2022/10/11 11:19:05;;;;;;;4.07;3.75;;;;;;;;;;5019363;28;20052;-93
2022/10/11 11:21:49;;;;;;;3.88;3.58;;;;;;;;;;5019137;28;20047;-92
2022/10/11 11:24:20;;;;;;;4.55;4.15;;;;;;;;;;5030091;28;20041;-91
2022/10/11 11:26:49;;;;;;;6.15;5.55;;;;;;;;;;5040057;28;20035;-94
2022/10/11 11:29:33;;;;;;;4.45;4.05;;;;;;;;;;5040396;28;20033;-92
2022/10/11 11:31:59;;;;;;;4.70;3.42;;;;;;;;;;5073654;28;20478;-90
2022/10/11 11:34:36;;;;;;;5.85;4.10;;;;;;;;;;5040182;28;20024;-92
2022/10/11 11:37:08;;;;;;;5.93;3.90;;;;;;;;;;5056553;28;20031;-92
2022/10/11 11:39:36;;;;;;;4.35;4.00;;;;;;;;;;5073733;28;20378;-93
2022/10/11 11:42:14;;;;;;;6.00;4.30;;;;;;;;;;5039904;28;20107;-91
2022/10/11 11:44:44;;;;;;;4.18;3.78;;;;;;;;;;5073389;28;20025;-92
2022/10/11 11:47:16;;;;;;;5.03;3.90;;;;;;;;;;5039837;28;20029;-91
2022/10/11 11:49:45;;;;;;;11.10;6.03;;;;;;;;;;5056588;28;20486;-92
2022/10/11 11:52:26;;;;;;;7.88;4.78;;;;;;;;;;5039827;28;20117;-91
2022/10/11 11:54:58;;;;;;;5.47;4.38;;;;;;;;;;5040017;28;20457;-91
2022/10/11 11:57:29;;;;;;;4.25;3.85;;;;;;;;;;5056564;28;20025;-90
2022/10/11 12:00:00;;;;;;;4.47;3.58;;;;;;;;;;5073097;28;20115;-92
2022/10/11 12:02:27;;;;;;;5.55;3.70;;;;;;;;;;5056404;28;20063;-92
2022/10/11 12:04:53;;;;;;;5.15;3.28;;;;;;;;;;5039806;28;20459;-93
2022/10/11 12:07:23;;;;;;;3.58;3.22;;;;;;;;;;5039488;28;20036;-93
2022/10/11 12:09:51;;;;;;;4.72;3.22;;;;;;;;;;5039432;28;20017;-93
2022/10/11 12:12:34;;;;;;;4.55;3.33;;;;;;;;;;5039577;28;20017;-93
2022/10/11 12:15:02;;;;;;;3.90;3.60;;;;;;;;;;5056285;28;20025;-93
2022/10/11 12:17:27;;;;;;;3.60;2.65;;;;;;;;;;5039350;28;20023;-95
2022/10/11 12:19:59;;;;;;;4.45;3.30;;;;;;;;;;5039393;28;20025;-93
2022/10/11 12:22:25;;;;;;;3.03;2.80;;;;;;;;;;5073944;28;20025;-93
2022/10/11 12:24:51;;;;;;;4.57;4.07;;;;;;;;;;5039333;28;20387;-93
2022/10/11 12:27:36;;;;;;;2.58;2.38;;;;;;;;;;5039566;28;20025;-93
2022/10/11 12:30:02;;;;;;;2.70;2.50;;;;;;;;;;5072737;28;20499;-94
2022/10/11 12:32:27;;;;;;;2.22;2.08;;;;;;;;;;5041223;28;20020;-93
2022/10/11 12:35:13;;;;;;;2.58;2.38;;;;;;;;;;5076311;28;20048;-93
2022/10/11 12:37:38;;;;;;;3.75;2.67;;;;;;;;;;5059526;28;20025;-93
2022/10/11 12:40:24;;;;;;;3.40;2.63;;;;;;;;;;5043002;28;20019;-92
2022/10/11 12:43:28;;;;;;;2.95;2.75;;;;;;;;;;5075624;28;20474;-92
2022/10/11 12:45:53;;;;;;;3.50;2.50;;;;;;;;;;5014431;28;20113;-92
2022/10/11 12:52:16;;;;;;;2.10;2.00;;;;;;;;;;5018081;28;20088;-96
2022/10/11 12:55:01;;;;;;;2.70;2.50;;;;;;;;;;5001492;28;20034;-94
2022/10/11 13:01:50;;;;;;;4.53;2.78;;;;;;;;;;5077883;28;20501;-95
2022/10/11 13:08:28;;;;;;;;;;;;;;;;;;;;;
2022/10/11 13:11:29;;;;;;;6.00;2.85;;;;;;;;;;5057453;28;20044;-94
2022/10/11 13:13:59;;;;;;;4.03;2.15;;;;;;;;;;5076893;28;20123;-96
2022/10/11 13:19:31;;;;;;;3.92;2.65;;;;;;;;;;5055833;28;20139;-93
2022/10/11 13:21:58;;;;;;;4.00;2.33;;;;;;;;;;5042214;28;20016;-93
2022/10/11 13:24:25;;;;;;;2.17;2.08;;;;;;;;;;5076635;28;20036;-93
2022/10/11 13:26:53;;;;;;;3.58;2.72;;;;;;;;;;5059273;28;20036;-94
2022/10/11 13:29:38;;;;;;;5.35;2.40;;;;;;;;;;5051068;28;20066;-96
2022/10/11 13:46:31;;;;;;;2.88;2.60;;;;;;;;;;5043403;22;20461;-66
2022/10/11 13:48:57;;;;;;;4.80;2.05;;;;;;;;;;5055972;28;20029;-66
2022/10/11 13:51:29;;;;;;;2.92;2.28;;;;;;;;;;5073557;28;20108;-66
2022/10/11 13:53:58;;;;;;;2.58;2.35;;;;;;;;;;5073575;28;20024;-66
2022/10/11 13:56:24;;;;;;;3.20;2.88;;;;;;;;;;5073668;28;20452;-66
2022/10/11 13:58:51;;;;;;;11.10;3.70;;;;;;;;;;5073368;28;20059;-66
2022/10/11 14:01:17;;;;;;;4.22;3.13;;;;;;;;;;5073310;28;20037;-66
2022/10/11 14:03:44;;;;;;;4.25;2.83;;;;;;;;;;5072107;28;20041;-66
2022/10/11 14:06:09;;;;;;;2.90;2.58;;;;;;;;;;5073595;28;20031;-66
2022/10/11 14:08:37;;;;;;;6.45;4.13;;;;;;;;;;5074414;28;20033;-66
2022/10/11 14:11:03;;;;;;;4.38;2.20;;;;;;;;;;5073837;28;20021;-66
2022/10/11 14:13:36;;;;;;;4.88;1.90;;;;;;;;;;5056472;28;20077;-66
2022/10/11 14:16:05;;;;;;;2.58;2.22;;;;;;;;;;5074337;28;20067;-66
2022/10/11 14:18:33;;;;;;;6.40;3.83;;;;;;;;;;5074298;28;20034;-66
2022/10/11 14:21:16;;;;;;;1.98;1.85;;;;;;;;;;5074069;28;20024;-67
2022/10/11 14:23:41;;;;;;;8.95;2.40;;;;;;;;;;5074243;28;20036;-66
2022/10/11 14:26:07;;;;;;;4.35;2.42;;;;;;;;;;5074095;28;20028;-66
2022/10/11 14:28:33;;;;;;;4.57;2.63;;;;;;;;;;5074222;28;20045;-66
2022/10/11 14:30:58;;;;;;;5.95;2.72;;;;;;;;;;5055412;28;20460;-66
2022/10/11 14:33:24;;;;;;;2.58;1.70;;;;;;;;;;5074057;28;20028;-66
2022/10/11 14:35:50;;;;;;;3.05;1.65;;;;;;;;;;5074021;28;20030;-67
2022/10/11 14:38:15;;;;;;;2.40;1.75;;;;;;;;;;5073900;28;20060;-66
2022/10/11 14:40:41;;;;;;;5.57;2.33;;;;;;;;;;5073906;28;20107;-66
2022/10/11 14:43:06;;;;;;;5.47;2.47;;;;;;;;;;5055502;28;20035;-66
2022/10/11 14:45:31;;;;;;;5.07;2.85;;;;;;;;;;5055559;28;20022;-66
2022/10/11 14:47:57;;;;;;;5.45;1.83;;;;;;;;;;5073583;28;20423;-66
2022/10/11 14:50:41;;;;;;;5.38;3.53;;;;;;;;;;5055340;28;20031;-66
2022/10/11 14:53:07;;;;;;;5.70;2.30;;;;;;;;;;5073263;28;20043;-66
2022/10/11 14:55:34;;;;;;;8.07;2.95;;;;;;;;;;5073198;28;20032;-66
2022/10/11 14:57:59;;;;;;;3.60;2.05;;;;;;;;;;5073001;28;20020;-66
2022/10/11 15:00:27;;;;;;;6.32;2.88;;;;;;;;;;5073742;28;20345;-66
2022/10/11 15:02:53;;;;;;;6.35;2.30;;;;;;;;;;5055521;28;20028;-66
2022/10/11 15:05:18;;;;;;;3.83;2.40;;;;;;;;;;5072974;28;20115;-70
2022/10/11 15:07:44;;;;;;;2.10;1.70;;;;;;;;;;5073230;28;20025;-65
2022/10/11 15:10:20;;;;;;;4.63;2.58;;;;;;;;;;5071820;28;20070;-65